sensor_id;sensor_type;location;lat;lon;timestamp;P1;durP1;ratioP1;P2;durP2;ratioP2
20480;SDS011;10399;50.754;3.366;2023-08-01T00:02:24;5.57;;;2.63;;
20480;SDS011;10399;50.754;3.366;2023-08-01T00:04:53;8.40;;;2.88;;
20480;SDS011;10399;50.754;3.366;2023-08-01T00:07:21;8.82;;;3.20;;
20480;SDS011;10399;50.754;3.366;2023-08-01T00:09:48;5.93;;;3.00;;
20480;SDS011;10399;50.754;3.366;2023-08-01T00:12:16;8.20;;;3.20;;
20480;SDS011;10399;50.754;3.366;2023-08-01T00:14:50;9.35;;;2.90;;
20480;SDS011;10399;50.754;3.366;2023-08-01T00:17:18;7.97;;;3.10;;
20480;SDS011;10399;50.754;3.366;2023-08-01T00:19:45;7.20;;;3.30;;
20480;SDS011;10399;50.754;3.366;2023-08-01T00:22:13;14.05;;;3.67;;
20480;SDS011;10399;50.754;3.366;2023-08-01T00:24:43;8.73;;;3.40;;
20480;SDS011;10399;50.754;3.366;2023-08-01T00:27:10;8.65;;;3.42;;
20480;SDS011;10399;50.754;3.366;2023-08-01T00:29:40;10.07;;;3.72;;
20480;SDS011;10399;50.754;3.366;2023-08-01T00:32:09;10.77;;;3.67;;
20480;SDS011;10399;50.754;3.366;2023-08-01T00:34:36;14.38;;;4.47;;
20480;SDS011;10399;50.754;3.366;2023-08-01T00:37:04;8.63;;;3.78;;
20480;SDS011;10399;50.754;3.366;2023-08-01T00:39:33;7.95;;;4.00;;
20480;SDS011;10399;50.754;3.366;2023-08-01T00:42:00;7.78;;;3.97;;
20480;SDS011;10399;50.754;3.366;2023-08-01T00:44:29;10.65;;;4.07;;
20480;SDS011;10399;50.754;3.366;2023-08-01T00:46:56;9.52;;;4.25;;
20480;SDS011;10399;50.754;3.366;2023-08-01T00:49:25;11.43;;;4.22;;
20480;SDS011;10399;50.754;3.366;2023-08-01T00:51:52;9.68;;;3.67;;
20480;SDS011;10399;50.754;3.366;2023-08-01T00:54:20;9.93;;;4.35;;
20480;SDS011;10399;50.754;3.366;2023-08-01T00:56:47;10.02;;;4.35;;
20480;SDS011;10399;50.754;3.366;2023-08-01T00:59:16;16.63;;;4.57;;
20480;SDS011;10399;50.754;3.366;2023-08-01T01:01:44;13.30;;;4.00;;
20480;SDS011;10399;50.754;3.366;2023-08-01T01:04:11;8.15;;;4.20;;
20480;SDS011;10399;50.754;3.366;2023-08-01T01:06:45;15.00;;;4.53;;
20480;SDS011;10399;50.754;3.366;2023-08-01T01:09:20;8.02;;;4.22;;
20480;SDS011;10399;50.754;3.366;2023-08-01T01:11:47;11.27;;;4.82;;
20480;SDS011;10399;50.754;3.366;2023-08-01T01:14:15;10.57;;;4.75;;
20480;SDS011;10399;50.754;3.366;2023-08-01T01:16:43;12.05;;;5.10;;
20480;SDS011;10399;50.754;3.366;2023-08-01T01:19:10;8.90;;;4.60;;
20480;SDS011;10399;50.754;3.366;2023-08-01T01:21:40;13.85;;;4.78;;
20480;SDS011;10399;50.754;3.366;2023-08-01T01:24:09;10.43;;;4.53;;
20480;SDS011;10399;50.754;3.366;2023-08-01T01:26:44;13.52;;;5.03;;
20480;SDS011;10399;50.754;3.366;2023-08-01T01:29:14;15.43;;;5.20;;
20480;SDS011;10399;50.754;3.366;2023-08-01T01:31:42;12.63;;;5.63;;
20480;SDS011;10399;50.754;3.366;2023-08-01T01:34:10;15.10;;;5.15;;
20480;SDS011;10399;50.754;3.366;2023-08-01T01:36:40;13.77;;;5.38;;
20480;SDS011;10399;50.754;3.366;2023-08-01T01:39:08;11.95;;;5.55;;
20480;SDS011;10399;50.754;3.366;2023-08-01T01:41:34;17.33;;;5.53;;
20480;SDS011;10399;50.754;3.366;2023-08-01T01:44:02;15.55;;;5.68;;
20480;SDS011;10399;50.754;3.366;2023-08-01T01:46:30;14.27;;;6.18;;
20480;SDS011;10399;50.754;3.366;2023-08-01T01:48:57;19.55;;;5.85;;
20480;SDS011;10399;50.754;3.366;2023-08-01T01:51:25;13.60;;;6.00;;
20480;SDS011;10399;50.754;3.366;2023-08-01T01:53:54;17.92;;;6.22;;
20480;SDS011;10399;50.754;3.366;2023-08-01T01:56:22;20.27;;;6.82;;
20480;SDS011;10399;50.754;3.366;2023-08-01T01:58:50;21.40;;;6.47;;
20480;SDS011;10399;50.754;3.366;2023-08-01T02:01:17;15.57;;;6.35;;
20480;SDS011;10399;50.754;3.366;2023-08-01T02:03:44;19.17;;;6.85;;
20480;SDS011;10399;50.754;3.366;2023-08-01T02:06:11;16.15;;;6.60;;
20480;SDS011;10399;50.754;3.366;2023-08-01T02:08:41;22.67;;;6.90;;
20480;SDS011;10399;50.754;3.366;2023-08-01T02:11:09;19.80;;;6.30;;
20480;SDS011;10399;50.754;3.366;2023-08-01T02:13:37;24.77;;;6.90;;
20480;SDS011;10399;50.754;3.366;2023-08-01T02:16:04;16.45;;;6.40;;
20480;SDS011;10399;50.754;3.366;2023-08-01T02:18:32;17.45;;;6.32;;
20480;SDS011;10399;50.754;3.366;2023-08-01T02:20:59;19.42;;;7.38;;
20480;SDS011;10399;50.754;3.366;2023-08-01T02:23:28;24.05;;;7.13;;
20480;SDS011;10399;50.754;3.366;2023-08-01T02:25:56;18.77;;;7.40;;
20480;SDS011;10399;50.754;3.366;2023-08-01T02:28:26;20.02;;;6.75;;
20480;SDS011;10399;50.754;3.366;2023-08-01T02:30:53;21.88;;;6.75;;
20480;SDS011;10399;50.754;3.366;2023-08-01T02:33:21;21.95;;;6.22;;
20480;SDS011;10399;50.754;3.366;2023-08-01T02:35:48;20.45;;;6.18;;
20480;SDS011;10399;50.754;3.366;2023-08-01T02:38:15;22.35;;;6.85;;
20480;SDS011;10399;50.754;3.366;2023-08-01T02:40:47;17.15;;;6.35;;
20480;SDS011;10399;50.754;3.366;2023-08-01T02:43:14;24.30;;;6.25;;
20480;SDS011;10399;50.754;3.366;2023-08-01T02:45:45;16.73;;;6.50;;
20480;SDS011;10399;50.754;3.366;2023-08-01T02:48:12;16.75;;;6.47;;
20480;SDS011;10399;50.754;3.366;2023-08-01T02:50:40;21.00;;;7.63;;
20480;SDS011;10399;50.754;3.366;2023-08-01T02:53:07;22.08;;;6.97;;
20480;SDS011;10399;50.754;3.366;2023-08-01T02:55:35;24.13;;;6.20;;
20480;SDS011;10399;50.754;3.366;2023-08-01T02:58:02;12.77;;;5.82;;
20480;SDS011;10399;50.754;3.366;2023-08-01T03:00:31;19.00;;;6.45;;
20480;SDS011;10399;50.754;3.366;2023-08-01T03:02:59;19.23;;;6.70;;
20480;SDS011;10399;50.754;3.366;2023-08-01T03:05:27;17.45;;;6.25;;
20480;SDS011;10399;50.754;3.366;2023-08-01T03:07:58;19.02;;;6.50;;
20480;SDS011;10399;50.754;3.366;2023-08-01T03:10:26;25.88;;;6.50;;
20480;SDS011;10399;50.754;3.366;2023-08-01T03:13:02;16.13;;;6.22;;
20480;SDS011;10399;50.754;3.366;2023-08-01T03:15:31;19.98;;;6.50;;
20480;SDS011;10399;50.754;3.366;2023-08-01T03:17:58;17.05;;;6.32;;
20480;SDS011;10399;50.754;3.366;2023-08-01T03:20:30;16.17;;;6.55;;
20480;SDS011;10399;50.754;3.366;2023-08-01T03:22:58;14.05;;;6.18;;
20480;SDS011;10399;50.754;3.366;2023-08-01T03:25:26;20.58;;;6.57;;
20480;SDS011;10399;50.754;3.366;2023-08-01T03:27:53;21.30;;;6.28;;
20480;SDS011;10399;50.754;3.366;2023-08-01T03:30:22;16.98;;;6.47;;
20480;SDS011;10399;50.754;3.366;2023-08-01T03:32:50;21.58;;;6.97;;
20480;SDS011;10399;50.754;3.366;2023-08-01T03:35:18;18.20;;;6.82;;
20480;SDS011;10399;50.754;3.366;2023-08-01T03:37:46;17.88;;;6.47;;
20480;SDS011;10399;50.754;3.366;2023-08-01T03:40:14;18.35;;;6.85;;
20480;SDS011;10399;50.754;3.366;2023-08-01T03:42:43;19.00;;;6.93;;
20480;SDS011;10399;50.754;3.366;2023-08-01T03:45:10;22.55;;;6.68;;
20480;SDS011;10399;50.754;3.366;2023-08-01T03:47:38;18.75;;;6.82;;
20480;SDS011;10399;50.754;3.366;2023-08-01T03:50:05;22.52;;;6.60;;
20480;SDS011;10399;50.754;3.366;2023-08-01T03:52:34;21.02;;;6.10;;
20480;SDS011;10399;50.754;3.366;2023-08-01T03:55:01;20.77;;;6.32;;
20480;SDS011;10399;50.754;3.366;2023-08-01T03:57:29;19.50;;;7.07;;
20480;SDS011;10399;50.754;3.366;2023-08-01T03:59:56;25.17;;;6.60;;
20480;SDS011;10399;50.754;3.366;2023-08-01T04:02:24;19.63;;;6.40;;
20480;SDS011;10399;50.754;3.366;2023-08-01T04:04:52;18.85;;;5.65;;
20480;SDS011;10399;50.754;3.366;2023-08-01T04:07:19;21.45;;;5.78;;
20480;SDS011;10399;50.754;3.366;2023-08-01T04:09:47;20.33;;;6.65;;
20480;SDS011;10399;50.754;3.366;2023-08-01T04:12:14;20.88;;;6.30;;
20480;SDS011;10399;50.754;3.366;2023-08-01T04:14:41;22.55;;;6.40;;
20480;SDS011;10399;50.754;3.366;2023-08-01T04:17:10;18.60;;;6.38;;
20480;SDS011;10399;50.754;3.366;2023-08-01T04:19:38;20.23;;;5.88;;
20480;SDS011;10399;50.754;3.366;2023-08-01T04:22:06;21.65;;;5.53;;
20480;SDS011;10399;50.754;3.366;2023-08-01T04:24:36;19.65;;;6.03;;
20480;SDS011;10399;50.754;3.366;2023-08-01T04:27:03;21.42;;;6.07;;
20480;SDS011;10399;50.754;3.366;2023-08-01T04:29:31;20.42;;;6.43;;
20480;SDS011;10399;50.754;3.366;2023-08-01T04:31:58;13.60;;;5.55;;
20480;SDS011;10399;50.754;3.366;2023-08-01T04:34:25;20.73;;;6.20;;
20480;SDS011;10399;50.754;3.366;2023-08-01T04:36:52;12.57;;;5.80;;
20480;SDS011;10399;50.754;3.366;2023-08-01T04:39:20;17.35;;;5.45;;
20480;SDS011;10399;50.754;3.366;2023-08-01T04:41:47;14.68;;;6.15;;
20480;SDS011;10399;50.754;3.366;2023-08-01T04:44:16;15.70;;;5.38;;
20480;SDS011;10399;50.754;3.366;2023-08-01T04:46:43;13.95;;;5.50;;
20480;SDS011;10399;50.754;3.366;2023-08-01T04:49:11;17.38;;;5.60;;
20480;SDS011;10399;50.754;3.366;2023-08-01T04:51:38;18.25;;;5.45;;
20480;SDS011;10399;50.754;3.366;2023-08-01T04:54:06;24.65;;;6.45;;
20480;SDS011;10399;50.754;3.366;2023-08-01T04:56:34;17.73;;;5.75;;
20480;SDS011;10399;50.754;3.366;2023-08-01T04:59:01;19.77;;;5.55;;
20480;SDS011;10399;50.754;3.366;2023-08-01T05:01:28;19.55;;;5.68;;
20480;SDS011;10399;50.754;3.366;2023-08-01T05:03:55;17.73;;;5.43;;
20480;SDS011;10399;50.754;3.366;2023-08-01T05:06:24;13.95;;;5.72;;
20480;SDS011;10399;50.754;3.366;2023-08-01T05:08:51;14.50;;;5.28;;
20480;SDS011;10399;50.754;3.366;2023-08-01T05:11:18;19.23;;;5.20;;
20480;SDS011;10399;50.754;3.366;2023-08-01T05:13:45;12.35;;;5.20;;
20480;SDS011;10399;50.754;3.366;2023-08-01T05:16:13;18.42;;;5.60;;
20480;SDS011;10399;50.754;3.366;2023-08-01T05:18:41;16.85;;;6.25;;
20480;SDS011;10399;50.754;3.366;2023-08-01T05:21:08;13.75;;;5.07;;
20480;SDS011;10399;50.754;3.366;2023-08-01T05:23:40;16.42;;;5.43;;
20480;SDS011;10399;50.754;3.366;2023-08-01T05:26:11;17.17;;;5.57;;
20480;SDS011;10399;50.754;3.366;2023-08-01T05:28:38;19.17;;;5.43;;
20480;SDS011;10399;50.754;3.366;2023-08-01T05:31:06;14.57;;;5.75;;
20480;SDS011;10399;50.754;3.366;2023-08-01T05:33:33;14.57;;;5.63;;
20480;SDS011;10399;50.754;3.366;2023-08-01T05:36:00;24.45;;;5.80;;
20480;SDS011;10399;50.754;3.366;2023-08-01T05:38:29;20.60;;;6.40;;
20480;SDS011;10399;50.754;3.366;2023-08-01T05:40:57;20.35;;;6.05;;
20480;SDS011;10399;50.754;3.366;2023-08-01T05:43:24;15.32;;;5.28;;
20480;SDS011;10399;50.754;3.366;2023-08-01T05:45:51;18.00;;;5.72;;
20480;SDS011;10399;50.754;3.366;2023-08-01T05:48:21;18.02;;;5.65;;
20480;SDS011;10399;50.754;3.366;2023-08-01T05:50:50;16.75;;;5.57;;
20480;SDS011;10399;50.754;3.366;2023-08-01T05:53:19;20.45;;;5.72;;
20480;SDS011;10399;50.754;3.366;2023-08-01T05:55:47;17.55;;;6.93;;
20480;SDS011;10399;50.754;3.366;2023-08-01T05:58:14;16.80;;;5.53;;
20480;SDS011;10399;50.754;3.366;2023-08-01T06:00:42;17.83;;;5.85;;
20480;SDS011;10399;50.754;3.366;2023-08-01T06:03:09;17.52;;;5.88;;
20480;SDS011;10399;50.754;3.366;2023-08-01T06:05:37;18.17;;;5.38;;
20480;SDS011;10399;50.754;3.366;2023-08-01T06:08:06;15.45;;;5.95;;
20480;SDS011;10399;50.754;3.366;2023-08-01T06:10:37;24.45;;;5.63;;
20480;SDS011;10399;50.754;3.366;2023-08-01T06:13:04;18.27;;;5.47;;
20480;SDS011;10399;50.754;3.366;2023-08-01T06:15:32;17.00;;;5.88;;
20480;SDS011;10399;50.754;3.366;2023-08-01T06:17:59;16.23;;;5.68;;
20480;SDS011;10399;50.754;3.366;2023-08-01T06:20:28;24.05;;;5.65;;
20480;SDS011;10399;50.754;3.366;2023-08-01T06:22:56;15.45;;;6.63;;
20480;SDS011;10399;50.754;3.366;2023-08-01T06:25:23;20.65;;;6.10;;
20480;SDS011;10399;50.754;3.366;2023-08-01T06:27:50;13.80;;;5.97;;
20480;SDS011;10399;50.754;3.366;2023-08-01T06:30:19;19.30;;;6.07;;
20480;SDS011;10399;50.754;3.366;2023-08-01T06:32:46;17.95;;;5.80;;
20480;SDS011;10399;50.754;3.366;2023-08-01T06:35:13;20.60;;;5.38;;
20480;SDS011;10399;50.754;3.366;2023-08-01T06:37:40;17.33;;;4.93;;
20480;SDS011;10399;50.754;3.366;2023-08-01T06:40:08;16.25;;;5.18;;
20480;SDS011;10399;50.754;3.366;2023-08-01T06:42:36;16.17;;;5.00;;
20480;SDS011;10399;50.754;3.366;2023-08-01T06:45:04;21.08;;;5.38;;
20480;SDS011;10399;50.754;3.366;2023-08-01T06:47:32;15.00;;;5.25;;
20480;SDS011;10399;50.754;3.366;2023-08-01T06:50:00;18.17;;;4.93;;
20480;SDS011;10399;50.754;3.366;2023-08-01T06:52:27;26.67;;;5.35;;
20480;SDS011;10399;50.754;3.366;2023-08-01T06:54:55;21.13;;;5.18;;
20480;SDS011;10399;50.754;3.366;2023-08-01T06:57:23;14.55;;;5.45;;
20480;SDS011;10399;50.754;3.366;2023-08-01T06:59:51;19.20;;;5.40;;
20480;SDS011;10399;50.754;3.366;2023-08-01T07:02:18;21.83;;;5.20;;
20480;SDS011;10399;50.754;3.366;2023-08-01T07:04:46;19.45;;;5.13;;
20480;SDS011;10399;50.754;3.366;2023-08-01T07:07:13;16.48;;;5.40;;
20480;SDS011;10399;50.754;3.366;2023-08-01T07:09:40;19.17;;;5.03;;
20480;SDS011;10399;50.754;3.366;2023-08-01T07:12:07;17.90;;;4.38;;
20480;SDS011;10399;50.754;3.366;2023-08-01T07:14:35;13.25;;;4.22;;
20480;SDS011;10399;50.754;3.366;2023-08-01T07:17:02;15.23;;;4.22;;
20480;SDS011;10399;50.754;3.366;2023-08-01T07:19:29;13.70;;;4.43;;
20480;SDS011;10399;50.754;3.366;2023-08-01T07:21:56;10.95;;;3.90;;
20480;SDS011;10399;50.754;3.366;2023-08-01T07:24:24;13.20;;;4.63;;
20480;SDS011;10399;50.754;3.366;2023-08-01T07:26:54;16.00;;;4.53;;
20480;SDS011;10399;50.754;3.366;2023-08-01T07:29:22;13.45;;;4.63;;
20480;SDS011;10399;50.754;3.366;2023-08-01T07:31:50;13.23;;;4.60;;
20480;SDS011;10399;50.754;3.366;2023-08-01T07:34:17;15.40;;;5.03;;
20480;SDS011;10399;50.754;3.366;2023-08-01T07:36:45;12.10;;;4.35;;
20480;SDS011;10399;50.754;3.366;2023-08-01T07:39:15;19.65;;;4.45;;
20480;SDS011;10399;50.754;3.366;2023-08-01T07:41:42;13.07;;;4.57;;
20480;SDS011;10399;50.754;3.366;2023-08-01T07:44:10;17.10;;;5.07;;
20480;SDS011;10399;50.754;3.366;2023-08-01T07:46:39;12.25;;;4.40;;
20480;SDS011;10399;50.754;3.366;2023-08-01T07:49:07;15.20;;;3.92;;
20480;SDS011;10399;50.754;3.366;2023-08-01T07:51:34;13.00;;;3.97;;
20480;SDS011;10399;50.754;3.366;2023-08-01T07:54:02;14.60;;;3.83;;
20480;SDS011;10399;50.754;3.366;2023-08-01T07:56:30;15.15;;;3.88;;
20480;SDS011;10399;50.754;3.366;2023-08-01T07:58:57;18.45;;;4.55;;
20480;SDS011;10399;50.754;3.366;2023-08-01T08:01:25;19.85;;;5.15;;
20480;SDS011;10399;50.754;3.366;2023-08-01T08:03:52;15.48;;;4.00;;
20480;SDS011;10399;50.754;3.366;2023-08-01T08:06:21;18.13;;;3.88;;
20480;SDS011;10399;50.754;3.366;2023-08-01T08:08:50;18.30;;;4.43;;
20480;SDS011;10399;50.754;3.366;2023-08-01T08:11:17;16.55;;;4.22;;
20480;SDS011;10399;50.754;3.366;2023-08-01T08:13:47;11.90;;;4.50;;
20480;SDS011;10399;50.754;3.366;2023-08-01T08:16:14;10.68;;;3.78;;
20480;SDS011;10399;50.754;3.366;2023-08-01T08:18:41;13.88;;;3.60;;
20480;SDS011;10399;50.754;3.366;2023-08-01T08:21:09;15.85;;;3.80;;
20480;SDS011;10399;50.754;3.366;2023-08-01T08:23:38;18.10;;;4.43;;
20480;SDS011;10399;50.754;3.366;2023-08-01T08:26:05;11.50;;;3.28;;
20480;SDS011;10399;50.754;3.366;2023-08-01T08:28:33;10.98;;;3.90;;
20480;SDS011;10399;50.754;3.366;2023-08-01T08:31:01;13.82;;;3.38;;
20480;SDS011;10399;50.754;3.366;2023-08-01T08:33:30;10.50;;;3.03;;
20480;SDS011;10399;50.754;3.366;2023-08-01T08:35:57;12.75;;;3.42;;
20480;SDS011;10399;50.754;3.366;2023-08-01T08:38:25;14.25;;;3.47;;
20480;SDS011;10399;50.754;3.366;2023-08-01T08:43:41;17.95;;;2.97;;
20480;SDS011;10399;50.754;3.366;2023-08-01T08:46:12;10.13;;;3.20;;
20480;SDS011;10399;50.754;3.366;2023-08-01T08:48:43;11.82;;;2.88;;
20480;SDS011;10399;50.754;3.366;2023-08-01T08:51:12;9.27;;;2.60;;
20480;SDS011;10399;50.754;3.366;2023-08-01T08:53:41;11.43;;;3.17;;
20480;SDS011;10399;50.754;3.366;2023-08-01T08:56:11;8.77;;;3.42;;
20480;SDS011;10399;50.754;3.366;2023-08-01T08:58:39;13.68;;;3.25;;
20480;SDS011;10399;50.754;3.366;2023-08-01T09:01:08;14.27;;;3.38;;
20480;SDS011;10399;50.754;3.366;2023-08-01T09:03:38;13.40;;;3.03;;
20480;SDS011;10399;50.754;3.366;2023-08-01T09:06:11;15.75;;;2.88;;
20480;SDS011;10399;50.754;3.366;2023-08-01T09:08:55;15.13;;;2.72;;
20480;SDS011;10399;50.754;3.366;2023-08-01T09:11:28;10.07;;;3.40;;
20480;SDS011;10399;50.754;3.366;2023-08-01T09:14:01;8.90;;;2.78;;
20480;SDS011;10399;50.754;3.366;2023-08-01T09:16:28;10.65;;;2.50;;
20480;SDS011;10399;50.754;3.366;2023-08-01T09:18:57;8.40;;;2.45;;
20480;SDS011;10399;50.754;3.366;2023-08-01T09:21:24;8.95;;;2.30;;
20480;SDS011;10399;50.754;3.366;2023-08-01T09:23:51;7.68;;;2.25;;
20480;SDS011;10399;50.754;3.366;2023-08-01T09:26:20;8.35;;;1.58;;
20480;SDS011;10399;50.754;3.366;2023-08-01T09:28:57;5.43;;;1.80;;
20480;SDS011;10399;50.754;3.366;2023-08-01T09:31:26;13.10;;;2.08;;
20480;SDS011;10399;50.754;3.366;2023-08-01T09:33:57;11.30;;;2.38;;
20480;SDS011;10399;50.754;3.366;2023-08-01T09:36:25;9.77;;;1.77;;
20480;SDS011;10399;50.754;3.366;2023-08-01T09:38:57;7.32;;;1.70;;
20480;SDS011;10399;50.754;3.366;2023-08-01T09:41:26;4.57;;;1.45;;
20480;SDS011;10399;50.754;3.366;2023-08-01T09:43:54;5.32;;;1.73;;
20480;SDS011;10399;50.754;3.366;2023-08-01T09:46:22;8.82;;;1.90;;
20480;SDS011;10399;50.754;3.366;2023-08-01T09:48:51;7.13;;;1.75;;
20480;SDS011;10399;50.754;3.366;2023-08-01T09:51:18;8.55;;;2.25;;
20480;SDS011;10399;50.754;3.366;2023-08-01T09:56:20;4.25;;;1.80;;
20480;SDS011;10399;50.754;3.366;2023-08-01T09:58:55;11.18;;;2.63;;
20480;SDS011;10399;50.754;3.366;2023-08-01T10:01:23;10.35;;;2.30;;
20480;SDS011;10399;50.754;3.366;2023-08-01T10:03:51;10.57;;;1.77;;
20480;SDS011;10399;50.754;3.366;2023-08-01T10:06:21;7.60;;;1.50;;
20480;SDS011;10399;50.754;3.366;2023-08-01T10:08:51;9.48;;;1.80;;
20480;SDS011;10399;50.754;3.366;2023-08-01T10:11:20;9.13;;;1.98;;
20480;SDS011;10399;50.754;3.366;2023-08-01T10:13:48;5.65;;;2.00;;
20480;SDS011;10399;50.754;3.366;2023-08-01T10:16:16;4.80;;;1.50;;
20480;SDS011;10399;50.754;3.366;2023-08-01T10:18:44;5.32;;;1.83;;
20480;SDS011;10399;50.754;3.366;2023-08-01T10:21:12;5.43;;;1.73;;
20480;SDS011;10399;50.754;3.366;2023-08-01T10:23:43;6.22;;;2.08;;
20480;SDS011;10399;50.754;3.366;2023-08-01T10:26:12;9.05;;;1.70;;
20480;SDS011;10399;50.754;3.366;2023-08-01T10:28:41;5.35;;;1.67;;
20480;SDS011;10399;50.754;3.366;2023-08-01T10:31:18;6.28;;;1.65;;
20480;SDS011;10399;50.754;3.366;2023-08-01T10:33:48;9.88;;;2.15;;
20480;SDS011;10399;50.754;3.366;2023-08-01T10:38:54;6.28;;;1.60;;
20480;SDS011;10399;50.754;3.366;2023-08-01T10:41:31;4.10;;;1.30;;
20480;SDS011;10399;50.754;3.366;2023-08-01T10:44:12;8.98;;;1.77;;
20480;SDS011;10399;50.754;3.366;2023-08-01T10:46:48;6.32;;;1.98;;
20480;SDS011;10399;50.754;3.366;2023-08-01T10:49:19;6.18;;;1.75;;
20480;SDS011;10399;50.754;3.366;2023-08-01T10:52:00;5.20;;;1.38;;
20480;SDS011;10399;50.754;3.366;2023-08-01T10:54:28;10.70;;;1.60;;
20480;SDS011;10399;50.754;3.366;2023-08-01T10:56:56;8.13;;;1.67;;
20480;SDS011;10399;50.754;3.366;2023-08-01T10:59:26;5.82;;;1.50;;
20480;SDS011;10399;50.754;3.366;2023-08-01T11:01:57;7.03;;;1.55;;
20480;SDS011;10399;50.754;3.366;2023-08-01T11:04:27;6.25;;;1.52;;
20480;SDS011;10399;50.754;3.366;2023-08-01T11:06:54;6.53;;;1.73;;
20480;SDS011;10399;50.754;3.366;2023-08-01T11:09:24;4.30;;;1.73;;
20480;SDS011;10399;50.754;3.366;2023-08-01T11:11:54;7.60;;;1.55;;
20480;SDS011;10399;50.754;3.366;2023-08-01T11:14:24;7.60;;;1.67;;
20480;SDS011;10399;50.754;3.366;2023-08-01T11:16:54;4.80;;;1.55;;
20480;SDS011;10399;50.754;3.366;2023-08-01T11:21:54;5.80;;;1.45;;
20480;SDS011;10399;50.754;3.366;2023-08-01T11:24:26;4.13;;;1.50;;
20480;SDS011;10399;50.754;3.366;2023-08-01T11:26:53;8.63;;;2.08;;
20480;SDS011;10399;50.754;3.366;2023-08-01T11:29:22;6.40;;;2.15;;
20480;SDS011;10399;50.754;3.366;2023-08-01T11:31:59;5.78;;;1.80;;
20480;SDS011;10399;50.754;3.366;2023-08-01T11:34:27;4.43;;;1.65;;
20480;SDS011;10399;50.754;3.366;2023-08-01T11:36:54;4.30;;;1.55;;
20480;SDS011;10399;50.754;3.366;2023-08-01T11:39:21;8.35;;;1.83;;
20480;SDS011;10399;50.754;3.366;2023-08-01T11:41:49;6.22;;;1.83;;
20480;SDS011;10399;50.754;3.366;2023-08-01T11:44:17;7.18;;;1.83;;
20480;SDS011;10399;50.754;3.366;2023-08-01T11:46:44;6.68;;;1.98;;
20480;SDS011;10399;50.754;3.366;2023-08-01T11:49:13;7.93;;;2.08;;
20480;SDS011;10399;50.754;3.366;2023-08-01T11:51:42;6.10;;;1.77;;
20480;SDS011;10399;50.754;3.366;2023-08-01T11:54:11;6.80;;;1.80;;
20480;SDS011;10399;50.754;3.366;2023-08-01T11:56:40;7.15;;;2.13;;
20480;SDS011;10399;50.754;3.366;2023-08-01T11:59:10;8.57;;;1.90;;
20480;SDS011;10399;50.754;3.366;2023-08-01T12:01:39;9.13;;;2.20;;
20480;SDS011;10399;50.754;3.366;2023-08-01T12:04:11;11.93;;;2.35;;
20480;SDS011;10399;50.754;3.366;2023-08-01T12:06:38;9.27;;;2.13;;
20480;SDS011;10399;50.754;3.366;2023-08-01T12:09:11;5.03;;;1.85;;
20480;SDS011;10399;50.754;3.366;2023-08-01T12:11:39;4.57;;;1.67;;
20480;SDS011;10399;50.754;3.366;2023-08-01T12:14:12;6.72;;;1.75;;
20480;SDS011;10399;50.754;3.366;2023-08-01T12:16:41;6.82;;;1.92;;
20480;SDS011;10399;50.754;3.366;2023-08-01T12:19:21;6.85;;;2.00;;
20480;SDS011;10399;50.754;3.366;2023-08-01T12:21:48;5.03;;;2.08;;
20480;SDS011;10399;50.754;3.366;2023-08-01T12:24:17;6.45;;;2.10;;
20480;SDS011;10399;50.754;3.366;2023-08-01T12:26:44;7.20;;;1.77;;
20480;SDS011;10399;50.754;3.366;2023-08-01T12:29:11;8.18;;;1.92;;
20480;SDS011;10399;50.754;3.366;2023-08-01T12:31:38;6.43;;;1.90;;
20480;SDS011;10399;50.754;3.366;2023-08-01T12:34:06;6.28;;;1.80;;
20480;SDS011;10399;50.754;3.366;2023-08-01T12:36:33;3.95;;;1.15;;
20480;SDS011;10399;50.754;3.366;2023-08-01T12:39:01;6.80;;;1.50;;
20480;SDS011;10399;50.754;3.366;2023-08-01T12:41:28;5.15;;;1.27;;
20480;SDS011;10399;50.754;3.366;2023-08-01T12:43:55;5.47;;;1.70;;
20480;SDS011;10399;50.754;3.366;2023-08-01T12:46:23;10.77;;;2.08;;
20480;SDS011;10399;50.754;3.366;2023-08-01T12:48:50;8.65;;;1.80;;
20480;SDS011;10399;50.754;3.366;2023-08-01T12:51:18;4.88;;;1.40;;
20480;SDS011;10399;50.754;3.366;2023-08-01T12:53:47;6.25;;;1.48;;
20480;SDS011;10399;50.754;3.366;2023-08-01T12:56:14;3.20;;;1.52;;
20480;SDS011;10399;50.754;3.366;2023-08-01T12:58:42;7.97;;;1.88;;
20480;SDS011;10399;50.754;3.366;2023-08-01T13:01:09;9.50;;;2.05;;
20480;SDS011;10399;50.754;3.366;2023-08-01T13:03:36;5.18;;;1.90;;
20480;SDS011;10399;50.754;3.366;2023-08-01T13:06:05;5.38;;;1.70;;
20480;SDS011;10399;50.754;3.366;2023-08-01T13:08:36;7.35;;;2.00;;
20480;SDS011;10399;50.754;3.366;2023-08-01T13:11:09;8.05;;;1.92;;
20480;SDS011;10399;50.754;3.366;2023-08-01T13:13:40;8.57;;;2.05;;
20480;SDS011;10399;50.754;3.366;2023-08-01T13:16:08;8.80;;;2.00;;
20480;SDS011;10399;50.754;3.366;2023-08-01T13:18:35;10.55;;;1.92;;
20480;SDS011;10399;50.754;3.366;2023-08-01T13:21:10;4.85;;;1.80;;
20480;SDS011;10399;50.754;3.366;2023-08-01T13:23:39;9.05;;;2.20;;
20480;SDS011;10399;50.754;3.366;2023-08-01T13:26:06;7.75;;;2.03;;
20480;SDS011;10399;50.754;3.366;2023-08-01T13:28:33;10.45;;;2.20;;
20480;SDS011;10399;50.754;3.366;2023-08-01T13:31:01;7.03;;;1.95;;
20480;SDS011;10399;50.754;3.366;2023-08-01T13:33:28;10.93;;;1.63;;
20480;SDS011;10399;50.754;3.366;2023-08-01T13:35:56;7.20;;;2.00;;
20480;SDS011;10399;50.754;3.366;2023-08-01T13:38:24;8.57;;;2.25;;
20480;SDS011;10399;50.754;3.366;2023-08-01T13:40:51;13.30;;;2.60;;
20480;SDS011;10399;50.754;3.366;2023-08-01T13:43:20;7.10;;;2.30;;
20480;SDS011;10399;50.754;3.366;2023-08-01T13:45:47;8.93;;;2.22;;
20480;SDS011;10399;50.754;3.366;2023-08-01T13:48:17;9.60;;;3.03;;
20480;SDS011;10399;50.754;3.366;2023-08-01T13:50:45;10.32;;;2.17;;
20480;SDS011;10399;50.754;3.366;2023-08-01T13:53:12;8.10;;;2.13;;
20480;SDS011;10399;50.754;3.366;2023-08-01T13:55:40;4.90;;;1.70;;
20480;SDS011;10399;50.754;3.366;2023-08-01T13:58:08;10.90;;;2.38;;
20480;SDS011;10399;50.754;3.366;2023-08-01T14:00:34;9.20;;;1.83;;
20480;SDS011;10399;50.754;3.366;2023-08-01T14:03:03;9.15;;;2.17;;
20480;SDS011;10399;50.754;3.366;2023-08-01T14:05:31;14.25;;;2.80;;
20480;SDS011;10399;50.754;3.366;2023-08-01T14:07:59;9.55;;;2.33;;
20480;SDS011;10399;50.754;3.366;2023-08-01T14:10:28;9.13;;;2.30;;
20480;SDS011;10399;50.754;3.366;2023-08-01T14:12:55;9.07;;;2.10;;
20480;SDS011;10399;50.754;3.366;2023-08-01T14:15:23;6.00;;;2.00;;
20480;SDS011;10399;50.754;3.366;2023-08-01T14:17:51;7.03;;;2.10;;
20480;SDS011;10399;50.754;3.366;2023-08-01T14:20:19;8.18;;;1.92;;
20480;SDS011;10399;50.754;3.366;2023-08-01T14:22:47;11.95;;;1.90;;
20480;SDS011;10399;50.754;3.366;2023-08-01T14:25:14;5.72;;;1.83;;
20480;SDS011;10399;50.754;3.366;2023-08-01T14:27:41;7.13;;;2.17;;
20480;SDS011;10399;50.754;3.366;2023-08-01T14:30:09;7.90;;;2.65;;
20480;SDS011;10399;50.754;3.366;2023-08-01T14:32:36;8.77;;;2.53;;
20480;SDS011;10399;50.754;3.366;2023-08-01T14:35:05;8.13;;;2.05;;
20480;SDS011;10399;50.754;3.366;2023-08-01T14:37:34;10.05;;;2.10;;
20480;SDS011;10399;50.754;3.366;2023-08-01T14:40:03;10.85;;;2.63;;
20480;SDS011;10399;50.754;3.366;2023-08-01T14:42:31;11.13;;;2.58;;
20480;SDS011;10399;50.754;3.366;2023-08-01T14:44:58;14.68;;;2.60;;
20480;SDS011;10399;50.754;3.366;2023-08-01T14:47:25;13.80;;;2.22;;
20480;SDS011;10399;50.754;3.366;2023-08-01T14:49:52;12.27;;;2.05;;
20480;SDS011;10399;50.754;3.366;2023-08-01T14:52:23;6.68;;;1.92;;
20480;SDS011;10399;50.754;3.366;2023-08-01T14:54:55;9.30;;;1.98;;
20480;SDS011;10399;50.754;3.366;2023-08-01T14:57:23;7.07;;;2.15;;